createdAt,value
2019-05-11T00:01:31.675Z,99.90
2019-05-11T00:04:02.240Z,99.90
2019-05-11T00:06:32.886Z,99.90
2019-05-11T00:09:05.158Z,99.90
2019-05-11T00:11:35.924Z,99.90
2019-05-11T00:14:06.599Z,99.90
2019-05-11T00:16:37.150Z,99.90
2019-05-11T00:19:07.641Z,99.90
2019-05-11T00:21:38.152Z,99.90
2019-05-11T00:24:08.938Z,99.90
2019-05-11T00:26:39.664Z,99.90
2019-05-11T00:29:10.220Z,99.90
2019-05-11T00:31:41.145Z,99.90
2019-05-11T00:34:11.845Z,99.90
2019-05-11T00:36:42.610Z,99.90
2019-05-11T00:39:13.141Z,99.90
2019-05-11T00:41:43.725Z,99.90
2019-05-11T00:44:14.632Z,99.90
2019-05-11T00:46:45.186Z,99.90
2019-05-11T00:49:15.844Z,99.90
2019-05-11T00:51:47.512Z,99.90
2019-05-11T00:54:18.068Z,99.90
2019-05-11T00:56:48.900Z,99.90
2019-05-11T00:59:21.674Z,99.90
2019-05-11T01:01:51.602Z,99.90
2019-05-11T01:04:22.169Z,99.90
2019-05-11T01:06:52.694Z,99.90
2019-05-11T01:09:23.226Z,99.90
2019-05-11T01:11:54.086Z,99.90
2019-05-11T01:14:24.757Z,99.90
2019-05-11T01:16:55.319Z,99.90
2019-05-11T01:19:25.869Z,99.90
2019-05-11T01:21:56.387Z,99.90
2019-05-11T01:24:26.915Z,99.90
2019-05-11T01:27:00.144Z,99.90
2019-05-11T01:29:30.790Z,99.90
2019-05-11T01:32:01.351Z,99.90
2019-05-11T01:34:31.902Z,99.90
2019-05-11T01:37:02.409Z,99.90
2019-05-11T01:39:32.906Z,99.90
2019-05-11T01:42:03.436Z,99.90
2019-05-11T01:44:33.996Z,99.90
2019-05-11T01:47:04.487Z,99.90
2019-05-11T01:49:35.224Z,99.90
2019-05-11T01:52:05.797Z,99.90
2019-05-11T01:54:36.488Z,99.90
2019-05-11T01:57:07.056Z,99.90
2019-05-11T01:59:38.025Z,99.90
2019-05-11T02:02:08.502Z,99.90
2019-05-11T02:04:39.061Z,99.90
2019-05-11T02:07:09.541Z,99.90
2019-05-11T02:09:40.265Z,99.90
2019-05-11T02:12:10.876Z,99.90
2019-05-11T02:14:42.030Z,99.90
2019-05-11T02:17:12.572Z,99.90
2019-05-11T02:19:43.272Z,99.90
2019-05-11T02:22:14.129Z,99.90
2019-05-11T02:24:44.636Z,99.90
2019-05-11T02:27:15.140Z,99.90
2019-05-11T02:29:45.606Z,99.90
2019-05-11T02:32:16.106Z,99.90
2019-05-11T02:34:46.641Z,99.90
2019-05-11T02:37:17.209Z,99.90
2019-05-11T02:39:47.765Z,99.90
2019-05-11T02:42:18.302Z,99.90
2019-05-11T02:44:48.925Z,99.90
2019-05-11T02:47:19.493Z,99.90
2019-05-11T02:49:50.006Z,99.90
2019-05-11T02:52:21.064Z,99.90
2019-05-11T02:54:53.430Z,99.90
2019-05-11T02:57:23.992Z,99.90
2019-05-11T02:59:54.597Z,99.90
2019-05-11T03:02:25.110Z,99.90
2019-05-11T03:04:55.608Z,99.90
2019-05-11T03:07:26.150Z,99.90
2019-05-11T03:09:56.643Z,99.90
2019-05-11T03:12:27.241Z,99.90
2019-05-11T03:14:58.194Z,99.90
2019-05-11T03:17:32.501Z,99.90
2019-05-11T03:20:03.154Z,99.90
2019-05-11T05:45:50.740Z,99.90
2019-05-11T05:48:22.048Z,99.90
2019-05-11T05:50:52.508Z,99.90
2019-05-11T05:53:23.162Z,99.90
2019-05-11T05:55:53.723Z,99.90
2019-05-11T05:58:24.481Z,99.90
2019-05-11T06:00:54.979Z,99.90
2019-05-11T06:03:25.595Z,99.90
2019-05-11T06:05:56.247Z,99.90
2019-05-11T06:08:26.753Z,99.90
2019-05-11T06:10:57.273Z,99.90
2019-05-11T06:13:43.913Z,99.90
2019-05-11T06:16:00.013Z,99.90
2019-05-11T06:18:30.978Z,99.90
2019-05-11T06:21:01.781Z,99.90
2019-05-11T06:23:32.615Z,99.90
2019-05-11T06:26:03.221Z,99.90
2019-05-11T06:28:34.003Z,99.90
2019-05-11T06:31:04.802Z,99.90
2019-05-11T06:33:35.450Z,99.90
2019-05-11T06:36:06.185Z,99.90
2019-05-11T06:38:36.982Z,99.90
2019-05-11T06:41:07.728Z,99.90
2019-05-11T06:43:38.417Z,99.90
2019-05-11T06:46:09.883Z,99.90
2019-05-11T06:48:40.516Z,99.90
2019-05-11T06:51:11.279Z,99.90
2019-05-11T06:53:42.164Z,99.90
2019-05-11T06:56:13.075Z,99.90
2019-05-11T06:58:45.603Z,99.90
2019-05-11T07:01:16.108Z,99.90
2019-05-11T07:03:46.998Z,99.90
2019-05-11T07:06:17.477Z,99.90
2019-05-11T07:08:49.062Z,99.90
2019-05-11T07:11:21.026Z,99.90
2019-05-11T07:13:51.530Z,99.90
2019-05-11T07:16:22.284Z,99.90
2019-05-11T07:18:53.141Z,99.90
2019-05-11T07:21:23.958Z,99.90
2019-05-11T07:23:54.451Z,99.90
2019-05-11T07:26:25.064Z,99.90
2019-05-11T07:28:55.549Z,99.90
2019-05-11T07:31:26.304Z,99.90
2019-05-11T07:33:58.700Z,99.90
2019-05-11T07:36:29.068Z,99.90
2019-05-11T07:38:59.618Z,99.90
2019-05-11T07:41:30.221Z,99.90
2019-05-11T07:44:00.804Z,99.90
2019-05-11T07:46:31.413Z,99.90
2019-05-11T07:49:02.021Z,99.90
2019-05-11T07:51:32.867Z,99.90
2019-05-11T07:54:03.443Z,99.90
2019-05-11T07:56:34.465Z,99.90
2019-05-11T07:59:05.008Z,99.90
2019-05-11T08:01:38.371Z,99.90
2019-05-11T08:04:08.029Z,99.90
2019-05-11T08:06:39.206Z,99.90
2019-05-11T08:09:09.650Z,99.90
2019-05-11T08:11:40.273Z,99.90
2019-05-11T08:14:10.894Z,99.90
2019-05-11T08:16:41.546Z,99.90
2019-05-11T08:19:12.513Z,99.90
2019-05-11T08:21:43.148Z,99.90
2019-05-11T08:24:13.716Z,99.90
2019-05-11T08:26:44.263Z,99.90
2019-05-11T08:29:14.844Z,99.90
2019-05-11T08:31:45.378Z,99.90
2019-05-11T08:34:17.916Z,99.90
2019-05-11T08:36:48.171Z,99.90
2019-05-11T08:39:18.728Z,99.90
2019-05-11T08:41:49.308Z,99.90
2019-05-11T08:44:19.764Z,99.90
2019-05-11T08:46:50.341Z,99.90
2019-05-11T08:49:20.813Z,99.90
2019-05-11T08:51:51.351Z,99.90
2019-05-11T08:54:21.837Z,99.90
2019-05-11T08:56:52.347Z,99.90
2019-05-11T08:59:22.989Z,99.90
2019-05-11T09:01:53.572Z,99.90
2019-05-11T09:04:24.224Z,99.90
2019-05-11T09:06:54.800Z,99.90
2019-05-11T09:12:08.003Z,99.90
2019-05-11T09:14:38.876Z,99.90
2019-05-11T09:17:09.388Z,99.90
2019-05-11T09:19:40.122Z,99.90
2019-05-11T09:22:10.724Z,99.90
2019-05-11T09:24:41.642Z,99.90
2019-05-11T09:27:12.430Z,99.90
2019-05-11T09:29:43.072Z,99.90
2019-05-11T09:32:13.647Z,99.90
2019-05-11T09:34:44.221Z,99.90
2019-05-11T09:37:14.791Z,99.90
2019-05-11T09:39:47.733Z,99.90
2019-05-11T09:42:18.048Z,99.90
2019-05-11T09:44:48.710Z,99.90
2019-05-11T09:47:19.374Z,99.90
2019-05-11T09:49:51.062Z,99.90
2019-05-11T09:52:21.763Z,99.90
2019-05-11T09:54:52.251Z,99.90
2019-05-11T09:57:22.755Z,99.90
2019-05-11T09:59:53.368Z,99.90
2019-05-11T10:02:23.915Z,99.90
2019-05-11T10:04:54.555Z,99.90
2019-05-11T10:07:25.106Z,99.90
2019-05-11T10:09:55.790Z,99.90
2019-05-11T10:12:28.479Z,99.90
2019-05-11T10:14:59.212Z,99.90
2019-05-11T10:17:29.813Z,99.90
2019-05-11T10:20:00.404Z,99.90
2019-05-11T10:22:31.536Z,99.90
2019-05-11T10:25:02.290Z,99.90
2019-05-11T10:27:32.949Z,99.90
2019-05-11T10:30:03.904Z,99.90
2019-05-11T10:32:34.795Z,99.90
2019-05-11T10:35:07.789Z,99.90
2019-05-11T10:37:39.183Z,99.90
2019-05-11T10:40:09.840Z,99.90
2019-05-11T10:42:40.637Z,99.90
2019-05-11T10:45:11.799Z,99.90
2019-05-11T10:47:42.332Z,99.90
2019-05-11T10:50:13.102Z,99.90
2019-05-11T10:52:43.807Z,99.90
2019-05-11T10:55:15.096Z,99.90
2019-05-11T10:57:45.756Z,99.90
2019-05-11T11:03:05.493Z,99.80
2019-05-11T11:05:38.256Z,99.60
2019-05-11T11:08:08.496Z,98.80
2019-05-11T11:10:39.082Z,98.60
2019-05-11T11:13:09.689Z,98.40
2019-05-11T11:15:41.258Z,98.20
2019-05-11T11:18:11.895Z,98.40
2019-05-11T11:20:42.508Z,98.90
2019-05-11T11:26:02.707Z,98.50
2019-05-11T11:28:33.391Z,98.40
2019-05-11T11:31:03.991Z,96.40
2019-05-11T11:33:34.626Z,96.00
2019-05-11T11:36:05.314Z,96.70
2019-05-11T11:38:37.579Z,96.40
2019-05-11T11:41:08.258Z,96.60
2019-05-11T11:43:38.801Z,96.50
2019-05-11T11:46:09.323Z,95.20
2019-05-11T11:48:39.918Z,96.60
2019-05-11T11:51:10.501Z,97.00
2019-05-11T11:53:41.140Z,97.30
2019-05-11T11:56:11.774Z,97.00
2019-05-11T12:01:31.649Z,95.20
2019-05-11T12:04:02.159Z,94.40
2019-05-11T12:06:32.685Z,94.50
2019-05-11T12:09:04.524Z,93.30
2019-05-11T12:11:35.148Z,94.30
2019-05-11T12:14:05.715Z,94.10
2019-05-11T12:16:38.618Z,94.70
2019-05-11T12:19:08.597Z,94.30
2019-05-11T12:21:39.139Z,94.30
2019-05-11T12:24:09.787Z,94.30
2019-05-11T12:26:40.365Z,94.80
2019-05-11T12:29:10.951Z,95.10
2019-05-11T12:34:23.861Z,93.60
2019-05-11T12:36:54.330Z,92.80
2019-05-11T12:39:25.000Z,92.30
2019-05-11T12:41:55.476Z,92.90
2019-05-11T12:44:28.170Z,92.80
2019-05-11T12:46:58.498Z,92.20
2019-05-11T12:49:29.128Z,92.90
2019-05-11T12:51:59.647Z,93.10
2019-05-11T12:54:30.185Z,93.00
2019-05-11T12:57:00.885Z,92.90
2019-05-11T12:59:31.543Z,93.30
2019-05-11T13:02:02.193Z,93.50
2019-05-11T13:04:32.749Z,92.90
2019-05-11T13:07:03.302Z,92.70
2019-05-11T13:09:33.909Z,92.90
2019-05-11T13:12:04.507Z,92.40
2019-05-11T13:14:35.031Z,92.10
2019-05-11T13:17:07.708Z,92.10
2019-05-11T13:19:38.642Z,91.90
2019-05-11T13:22:09.293Z,91.00
2019-05-11T13:24:39.915Z,91.40
2019-05-11T13:27:10.641Z,91.00
2019-05-11T13:29:41.179Z,90.10
2019-05-11T13:32:11.868Z,90.40
2019-05-11T13:34:42.531Z,90.20
2019-05-11T13:37:13.149Z,90.50
2019-05-11T13:39:43.802Z,91.00
2019-05-11T13:42:14.326Z,90.60
2019-05-11T13:44:45.053Z,90.00
2019-05-11T13:47:17.520Z,90.60
2019-05-11T13:49:48.021Z,91.00
2019-05-11T13:52:18.707Z,90.70
2019-05-11T13:54:49.239Z,90.30
2019-05-11T13:57:19.847Z,89.80
2019-05-11T13:59:50.435Z,88.60
2019-05-11T14:02:21.111Z,86.60
2019-05-11T14:04:51.703Z,83.20
2019-05-11T14:07:22.234Z,83.10
2019-05-11T14:09:52.863Z,73.70
2019-05-11T14:12:23.455Z,73.30
2019-05-11T14:14:53.954Z,72.80
2019-05-11T14:17:24.553Z,72.50
2019-05-11T14:19:58.200Z,69.40
2019-05-11T14:22:28.143Z,70.50
2019-05-11T14:24:58.862Z,69.90
2019-05-11T14:27:29.538Z,67.00
2019-05-11T14:30:03.615Z,65.30
2019-05-11T14:32:32.491Z,64.00
2019-05-11T14:35:03.132Z,63.50
2019-05-11T14:37:33.770Z,63.30
2019-05-11T14:40:04.440Z,66.00
2019-05-11T14:42:35.022Z,63.80
2019-05-11T14:45:08.239Z,65.50
2019-05-11T14:47:38.778Z,65.30
2019-05-11T14:50:10.595Z,65.50
2019-05-11T14:52:41.175Z,65.80
2019-05-11T14:55:11.892Z,68.70
2019-05-11T14:57:42.507Z,67.00
2019-05-11T15:00:13.714Z,65.90
2019-05-11T15:02:49.183Z,63.20
2019-05-11T15:05:20.389Z,63.70
2019-05-11T15:07:52.766Z,62.40
2019-05-11T15:10:23.750Z,62.10
2019-05-11T15:12:54.291Z,62.00
2019-05-11T15:15:24.930Z,60.80
2019-05-11T15:17:57.960Z,61.00
2019-05-11T15:20:28.532Z,61.10
2019-05-11T15:22:59.243Z,57.80
2019-05-11T15:25:30.258Z,54.70
2019-05-11T15:28:00.790Z,56.40
2019-05-11T15:30:31.591Z,54.90
2019-05-11T15:33:02.234Z,56.00
2019-05-11T15:35:32.740Z,55.90
2019-05-11T15:38:03.334Z,55.20
2019-05-11T15:40:33.985Z,53.80
2019-05-11T15:43:04.604Z,53.30
2019-05-11T15:45:35.258Z,53.60
2019-05-11T15:48:08.244Z,54.90
2019-05-11T15:50:40.300Z,53.40
2019-05-11T15:53:10.335Z,54.50
2019-05-11T15:55:42.494Z,54.40
2019-05-11T15:58:14.185Z,53.30
2019-05-11T16:03:43.022Z,51.90
2019-05-11T16:06:13.581Z,51.90
2019-05-11T16:08:45.602Z,53.20
2019-05-11T16:11:18.025Z,52.90
2019-05-11T16:13:48.624Z,53.10
2019-05-11T16:16:19.130Z,54.70
2019-05-11T16:18:50.736Z,59.30
2019-05-11T16:21:21.338Z,62.70
2019-05-11T16:23:52.978Z,66.10
2019-05-11T16:26:23.603Z,68.40
2019-05-11T16:28:54.220Z,69.30
2019-05-11T16:31:24.756Z,71.60
2019-05-11T16:33:55.329Z,72.30
2019-05-11T16:36:28.303Z,72.30
2019-05-11T16:38:58.168Z,70.10
2019-05-11T16:41:29.276Z,70.40
2019-05-11T16:43:59.847Z,71.20
2019-05-11T16:46:30.403Z,70.00
2019-05-11T16:49:01.044Z,68.60
2019-05-11T16:51:31.643Z,67.60
2019-05-11T16:54:02.171Z,66.60
2019-05-11T16:56:32.818Z,66.70
2019-05-11T16:59:03.378Z,65.90
2019-05-11T17:01:33.968Z,66.90
2019-05-11T17:04:04.469Z,69.80
2019-05-11T17:06:35.191Z,72.40
2019-05-11T17:09:08.950Z,75.00
2019-05-11T17:11:39.717Z,75.00
2019-05-11T17:14:10.260Z,76.00
2019-05-11T17:16:40.876Z,76.80
2019-05-11T17:19:11.350Z,78.10
2019-05-11T17:21:41.921Z,79.00
2019-05-11T17:24:12.522Z,80.20
2019-05-11T17:26:43.111Z,80.80
2019-05-11T17:29:13.701Z,81.80
2019-05-11T17:31:44.392Z,83.30
2019-05-11T17:36:59.987Z,84.40
2019-05-11T17:39:29.602Z,85.40
2019-05-11T17:42:00.177Z,86.70
2019-05-11T17:44:30.752Z,86.90
2019-05-11T17:47:01.343Z,86.70
2019-05-11T17:49:31.930Z,86.70
2019-05-11T17:52:02.411Z,87.80
2019-05-11T17:54:33.068Z,88.30
2019-05-11T17:57:03.706Z,88.50
2019-05-11T17:59:34.323Z,84.80
2019-05-11T18:02:04.932Z,82.30
2019-05-11T18:04:35.461Z,80.00
2019-05-11T18:07:06.024Z,82.40
2019-05-11T18:09:38.062Z,83.40
2019-05-11T18:12:09.925Z,84.40
2019-05-11T18:17:36.161Z,86.80
2019-05-11T18:20:16.853Z,86.40
2019-05-11T18:22:39.964Z,87.20
2019-05-11T18:25:13.884Z,85.80
2019-05-11T18:27:43.528Z,86.80
2019-05-11T18:30:14.172Z,87.20
2019-05-11T18:32:44.736Z,86.30
2019-05-11T18:35:15.295Z,83.60
2019-05-11T18:37:47.718Z,81.80
2019-05-11T18:40:18.834Z,80.80
2019-05-11T18:42:49.452Z,79.80
2019-05-11T18:45:20.062Z,81.10
2019-05-11T18:47:50.528Z,80.50
2019-05-11T18:50:30.434Z,79.20
2019-05-11T18:52:53.229Z,77.20
2019-05-11T18:55:23.795Z,76.40
2019-05-11T18:57:54.391Z,77.60
2019-05-11T19:00:24.966Z,78.10
2019-05-11T19:02:57.851Z,77.90
2019-05-11T19:05:29.167Z,78.50
2019-05-11T19:07:59.732Z,79.50
2019-05-11T19:10:30.307Z,78.80
2019-05-11T19:13:00.837Z,77.60
2019-05-11T19:15:31.512Z,78.20
2019-05-11T19:18:01.985Z,78.00
2019-05-11T19:20:44.633Z,78.60
2019-05-11T19:25:48.093Z,82.40
2019-05-11T19:28:18.841Z,84.00
2019-05-11T19:30:49.416Z,85.60
2019-05-11T19:33:19.956Z,88.00
2019-05-11T19:35:50.618Z,88.10
2019-05-11T19:38:21.217Z,88.00
2019-05-11T19:40:51.880Z,89.80
2019-05-11T19:43:22.484Z,90.30
2019-05-11T19:45:53.156Z,90.70
2019-05-11T19:48:23.740Z,91.20
2019-05-11T19:53:50.549Z,91.90
2019-05-11T19:56:21.110Z,92.20
2019-05-11T19:58:51.664Z,92.70
2019-05-11T20:01:22.209Z,92.90
2019-05-11T20:03:52.834Z,92.90
2019-05-11T20:06:23.444Z,93.30
2019-05-11T20:08:53.984Z,93.40
2019-05-11T20:11:24.497Z,93.20
2019-05-11T20:13:54.955Z,93.30
2019-05-11T20:16:25.524Z,93.50
2019-05-11T20:18:57.791Z,93.30
2019-05-11T20:21:29.445Z,92.50
2019-05-11T20:23:59.968Z,92.50
2019-05-11T20:26:30.449Z,92.00
2019-05-11T20:29:01.025Z,91.80
2019-05-11T20:31:31.586Z,91.80
2019-05-11T20:34:02.282Z,91.60
2019-05-11T20:36:33.034Z,91.90
2019-05-11T20:39:05.222Z,92.00
2019-05-11T20:41:38.458Z,91.90
2019-05-11T20:44:09.162Z,92.00
2019-05-11T20:46:39.703Z,92.10
2019-05-11T20:49:10.236Z,91.90
2019-05-11T20:51:40.788Z,92.20
2019-05-11T20:54:11.355Z,92.30
2019-05-11T20:56:41.904Z,92.50
2019-05-11T20:59:12.647Z,92.50
2019-05-11T21:01:43.227Z,92.60
2019-05-11T21:04:13.808Z,92.80
2019-05-11T21:06:47.328Z,92.40
2019-05-11T21:09:18.428Z,92.60
2019-05-11T21:11:49.089Z,92.80
2019-05-11T21:14:19.645Z,92.90
2019-05-11T21:16:50.206Z,93.20
2019-05-11T21:19:20.783Z,93.40
2019-05-11T21:24:33.920Z,93.70
2019-05-11T21:27:04.411Z,94.20
2019-05-11T21:29:34.934Z,94.50
2019-05-11T21:32:07.873Z,94.70
2019-05-11T21:34:38.325Z,95.00
2019-05-11T21:37:08.974Z,95.20
2019-05-11T21:39:39.587Z,95.20
2019-05-11T21:42:10.049Z,95.30
2019-05-11T21:44:40.558Z,95.60
2019-05-11T21:47:11.080Z,95.80
2019-05-11T21:49:41.640Z,95.50
2019-05-11T21:54:53.978Z,95.60
2019-05-11T21:57:24.460Z,95.50
2019-05-11T21:59:55.004Z,95.80
2019-05-11T22:02:25.616Z,95.40
2019-05-11T22:04:58.507Z,95.60
2019-05-11T22:07:28.388Z,95.30
2019-05-11T22:10:00.003Z,95.30
2019-05-11T22:12:30.520Z,95.10
2019-05-11T22:15:01.056Z,95.10
2019-05-11T22:17:31.620Z,93.60
2019-05-11T22:20:02.212Z,93.90
2019-05-11T22:22:32.806Z,93.70
2019-05-11T22:25:03.387Z,94.70
2019-05-11T22:27:33.934Z,93.50
2019-05-11T22:30:04.617Z,93.60
2019-05-11T22:32:37.778Z,94.50
2019-05-11T22:35:08.283Z,94.90
2019-05-11T22:37:39.194Z,95.10
2019-05-11T22:40:10.258Z,95.30
2019-05-11T22:42:40.850Z,95.20
2019-05-11T22:45:11.815Z,95.50
2019-05-11T22:47:42.377Z,95.90
2019-05-11T22:50:13.240Z,95.60
2019-05-11T22:52:44.823Z,95.30
2019-05-11T22:55:15.523Z,94.70
2019-05-11T22:57:48.426Z,93.50
2019-05-11T23:00:22.246Z,93.30
2019-05-11T23:02:52.804Z,93.00
2019-05-11T23:05:23.414Z,92.90
2019-05-11T23:07:53.940Z,93.10
2019-05-11T23:10:24.502Z,93.20
2019-05-11T23:12:55.086Z,93.10
2019-05-11T23:15:25.726Z,93.30
2019-05-11T23:17:59.713Z,93.50
2019-05-11T23:20:30.153Z,93.70
2019-05-11T23:23:01.660Z,93.90
2019-05-11T23:25:32.746Z,94.10
2019-05-11T23:28:03.373Z,94.00
2019-05-11T23:30:33.945Z,94.20
2019-05-11T23:33:04.558Z,94.30
2019-05-11T23:35:35.244Z,94.60
2019-05-11T23:38:05.758Z,94.70
2019-05-11T23:40:37.881Z,94.90
2019-05-11T23:43:09.027Z,94.60
2019-05-11T23:45:39.626Z,93.20
2019-05-11T23:48:10.104Z,93.20
2019-05-11T23:50:40.619Z,93.10
2019-05-11T23:53:11.311Z,93.20
2019-05-11T23:55:41.923Z,93.00
2019-05-11T23:58:12.531Z,91.00
